Easton, WA (98925)

9:25 PM PDT on July 23, 2016 (GMT -0700)
Cle Elum Wa - GiddyLodge | | Change Station

Elev 2117 ft 47.21 °N, 121.11 °W | Updated 7 minutes ago

Partly Cloudy
Partly Cloudy
60.5 °F
Feels Like 60.5 °F
N
5.0
Wind Variable Wind from WNW
Gusts 12.0 mph

Today
High -- | Low -- °F
--% Chance of Precip.
Yesterday
High -- | Low -- °F
Precip. -- in
Pressure 30.24 in
Visibility -9999.0 miles
Clouds Few 900 ft
Dew Point 51 °F
Humidity 71%
Rainfall 0.00 in
Snow Depth Not available.
5:33 AM 8:48 PM
Waning Gibbous, 80% visible
METAR KSMP 240356Z AUTO VRB06KT FEW009 10/08 A3025 RMK AO2 SLP240 T01000078
Pressure 30.24 in
Visibility -9999.0 miles
Clouds Few 900 ft
Dew Point 51 °F
Humidity 71%
Rainfall 0.00 in
Snow Depth Not available.
5:33 AM 8:48 PM
Waning Gibbous, 80% visible
METAR KSMP 240356Z AUTO VRB06KT FEW009 10/08 A3025 RMK AO2 SLP240 T01000078

10-Day Weather Forecast

Almanac

Astronomy

Jul. 23, 2016 Rise Set
Actual Time
Civil Twilight
Nautical Twilight
Astronomical Twilight
Moon
Length of Visible Light
Length of Day
Tomorrow will be .
, % of the Moon is Illuminated

Today's Extremes

State Highs State Lows

Community

WunderPhotos

Upload Photos

1,927,027 photos uploaded!

WunderBlog® & News

Nearby

Air Quality

  Air Quality AQ Index Pollutant
Not available.

Snow Depth

Station Depth Elevation

Earthquake Activity

City Distance Mag. Time & Date
Minimum magnitude displayed is 2.5.

Coastal Water Temperatures

Place Temperature

Stations

Nearby Weather Stations

Station Location Temp. Windchill Dew Point Humidity Wind Precip. Elev Updated Type
                   

Watches & Warnings

There are currently no watches in effect.